Relevés horaires Zürich / Fluntern (Suisse)


Relevés horaires à Zürich / Fluntern - Dimanche 06 Oct. 2002
Heure UTC1 Température [°C] Vent [km/h] Hum. [%] Pres.4 [hPa] Visi. [Km] Nébu. [octa] Préc.5 [mm] Cond.
2m. Res. Ros. Dir.2 Vit. Moy. Raf.3
23:00 9.9 9.5 8.6 N 5.6 -- -- 92 1015.9 -- -- -- --
22:00 10.0 9.6 8.8 NNO 5.6 -- -- 92 1015.6 -- -- -- --
21:00 10.2 9 8.9 O 9.3 -- -- 92 1015.3 -- -- -- --
20:00 10.3 9.1 8.7 OSO 9.3 -- -- 90 1015 -- -- -- --
19:00 10.4 8.9 9.1 OSO 11.1 -- -- 92 1014.6 -- -- -- --
18:00 10.4 9.2 8.9 SO 9.3 -- 40.7 90 1014.3(1.4/3h) 12 7/8 9/12h
Brouillard
17:00 10.5 9.7 9.4 O 7.4 -- -- 93 1013.8 -- -- -- --
16:00 10.6 10.3 9.5 OSO 5.6 -- -- 93 1013.2 -- -- -- --
15:00 10.5 9.1 9.1 O 11.1 -- 53.7 91 1012.8(-0.2/3h) 8 8/8 -- Pluie
14:00 10.5 9.1 9.2 OSO 11.1 -- -- 92 1012.8 -- -- -- --
13:00 10.0 7.9 8.6 O 14.8 -- -- 91 1012.9 -- -- -- --
12:00 9.7 6.8 8.3 O 22.2 -- 53.7 91 1013.2(-0.9/3h) 3 8/8 8/6h
Pluie modérée continue
11:00 9.6 6.8 8.2 OSO 20.4 -- -- 91 1013.6 -- -- -- --
10:00 9.6 6.8 8.2 OSO 20.4 -- -- 91 1013.6 -- -- -- --
09:00 9.4 6.8 8.0 OSO 18.5 -- 38.9 91 1014.2(-1.7/3h) 3.2 8/8 -- Pluie forte continue
08:00 9.6 7.7 8.1 SO 13.0 -- -- 90 1014.5 -- -- -- --
07:00 9.5 7.8 7.8 SO 11.1 -- -- 89 1015.4 -- -- -- --
06:00 9.4 7 7.4 SO 16.7 -- -- 87 1016(-2.1/3h) 5 8/8 5/12h
Légère pluie continue
05:00 9.3 7.1 7.8 SO 14.8 -- -- 90 1016.9 -- -- -- --
04:00 9.4 7.4 7.7 OSO 13.0 -- -- 89 1017.5 -- -- -- --
03:00 9.5 7.6 8.0 OSO 13.0 -- -- 90 1018.3 -- -- -- --
02:00 9.7 8.4 8.4 SSO 9.3 -- -- 92 1018.9 -- -- -- --
01:00 9.8 8.2 7.8 SO 11.1 -- -- 87 1019.6 -- -- -- --
00:00 10.1 8.6 7.4 SO 11.1 -- -- 83 1020(-1.9/3h) -- -- -- --

1 Coordinated Universal Time. Actuellement il est 04:00 locale et 02:00 UTC.

2 Le vent souffle depuis la direction indiquée vers la direction oposée.

3 Les rafales max. sont disponible 40 min après l'heure du relevé.

4 Pour les stations d'altitude (plus de 600m) le géopotentiel du niveau le plus proche de la pression obligatoire est indiqué.

5 Les stations disposant d'un diffuseur peuvent indiquer "trace". Cela signifie que des précipitations ont touchés le sol mais que la quantité est inférieure à 0.1 mm.

Copyright

Les données affichées sur cette page sont la propriété exclusive de Météo Suisse.

Récapitulatif de la journée
Température [°C] Vent [km/h] Ensoleillement4 [h] Precipitations totale5 [mm] Pression [Hpa]
Min1 Max.2 Moy.3 Max. Min Max.
9.2 10.8 0 53.7 0 h 6 min 19 1012.8 1020.0

1 Température minimale relevée entre 18:00 UTC la veille et 18:00 UTC le jour donné.

2 Température maximale relevée entre 06:00 UTC le jour donné et 06:00 UTC le lendemain.

3 Vent moyen de la journée basé sur les relevés horaires.

4 Ensoleillement en heures relevé entre 06:00 UTC la veille et 06:00 UTC le jour donné.

5 Précipitations totales tombées entre 06:00 UTC la jour donné et 06:00 UTC le lendemain.

Graphiques horaires